Time;durP1;ratioP1;P1;durP2;ratioP2;P2;SDS_P1;SDS_P2;PMS_P1;PMS_P2;Temp;Humidity;BMP_temperature;BMP_pressure;BME280_temperature;BME280_humidity;BME280_pressure;Samples;Min_cycle;Max_cycle;Signal;HPM_P1;HPM_P2
2021/09/26 16:01:11;;;;;;;21.50;10.30;;;;;;;19.31;67.18;99407.81;113275;1193;106165;-76
2021/09/26 16:03:40;;;;;;;20.00;9.00;;;;;;;19.26;67.11;99411.05;113078;1196;96311;-72
2021/09/26 16:06:09;;;;;;;18.80;8.30;;;;;;;19.22;67.14;99407.66;113096;1196;97566;-73
2021/09/26 16:08:37;;;;;;;18.70;8.50;;;;;;;19.18;67.21;99407.20;113021;1195;111434;-72
2021/09/26 16:11:07;;;;;;;20.40;9.10;;;;;;;19.13;67.21;99411.82;113106;1195;95029;-75
2021/09/26 16:13:35;;;;;;;19.30;8.70;;;;;;;19.08;67.27;99411.59;113076;1195;107429;-73
2021/09/26 16:16:03;;;;;;;18.80;9.00;;;;;;;19.02;67.21;99417.00;113123;1195;96038;-76
2021/09/26 16:18:32;;;;;;;19.80;9.50;;;;;;;18.97;67.27;99422.92;112983;1196;97676;-72
2021/09/26 16:21:05;;;;;;;17.10;8.50;;;;;;;18.91;67.31;99423.30;113022;1195;111184;-75
2021/09/26 16:23:38;;;;;;;19.10;9.20;;;;;;;18.86;67.26;99419.15;112791;1195;97617;-71
2021/09/26 16:26:27;;;;;;;18.80;9.40;;;;;;;18.80;67.32;99419.23;112901;1195;107548;-71
2021/09/26 16:28:57;;;;;;;19.10;8.90;;;;;;;18.75;67.33;99417.59;112730;1196;97781;-73
2021/09/26 16:31:29;;;;;;;19.10;8.80;;;;;;;18.70;67.30;99410.77;112642;1196;96962;-73
2021/09/26 16:34:00;;;;;;;19.10;8.80;;;;;;;18.63;67.26;99411.22;113098;1195;111357;-73
2021/09/26 16:36:32;;;;;;;19.60;9.20;;;;;;;18.56;67.31;99410.31;113089;1195;95762;-73
2021/09/26 16:39:04;;;;;;;20.70;9.30;;;;;;;18.50;67.38;99413.27;113002;1195;107538;-75
2021/09/26 16:41:33;;;;;;;22.50;9.70;;;;;;;18.42;67.32;99412.45;113033;1195;97511;-75
2021/09/26 16:44:03;;;;;;;28.00;14.20;;;;;;;18.33;67.28;99415.00;112985;1195;96080;-75
2021/09/26 16:46:30;;;;;;;26.20;13.50;;;;;;;18.25;67.21;99412.92;113022;1196;111288;-74
2021/09/26 16:48:58;;;;;;;26.90;14.50;;;;;;;18.18;67.30;99415.89;113062;1196;97587;-74
2021/09/26 16:51:29;;;;;;;24.80;13.40;;;;;;;18.12;67.27;99418.15;112885;1196;107545;-75
2021/09/26 16:54:00;;;;;;;24.80;14.00;;;;;;;18.03;67.46;99417.00;113041;1196;97613;-74
2021/09/26 16:56:32;;;;;;;27.00;14.40;;;;;;;17.95;67.35;99415.83;113084;1195;97538;-73
2021/09/26 16:59:01;;;;;;;28.00;15.30;;;;;;;17.86;67.40;99421.29;112946;1196;111371;-73
2021/09/26 17:01:30;;;;;;;31.00;17.60;;;;;;;17.80;67.40;99425.19;112891;1196;97633;-72
2021/09/26 17:03:58;;;;;;;29.00;15.50;;;;;;;17.74;67.46;99428.10;113044;1195;107525;-73
2021/09/26 17:06:27;;;;;;;23.70;13.40;;;;;;;17.67;67.44;99425.98;113092;1196;97686;-71
2021/09/26 17:08:55;;;;;;;28.90;13.60;;;;;;;17.61;67.56;99428.45;113117;1196;97695;-75
2021/09/26 17:11:23;;;;;;;28.70;13.40;;;;;;;17.54;67.52;99427.40;112924;1195;111723;-73
2021/09/26 17:13:52;;;;;;;24.20;12.00;;;;;;;17.48;67.49;99429.16;113037;1187;97630;-72
2021/09/26 17:16:21;;;;;;;22.50;11.20;;;;;;;17.40;67.62;99425.75;112959;1197;108242;-74
2021/09/26 17:18:49;;;;;;;22.70;11.10;;;;;;;17.33;67.63;99426.02;112991;1195;97898;-74
2021/09/26 17:21:19;;;;;;;23.60;11.40;;;;;;;17.28;67.49;99426.00;113034;1195;97603;-71
2021/09/26 17:23:48;;;;;;;24.30;12.60;;;;;;;17.21;67.46;99428.56;112964;1195;111305;-77
2021/09/26 17:26:17;;;;;;;23.20;12.20;;;;;;;17.06;67.30;99430.95;113150;1196;97606;-74
2021/09/26 17:28:45;;;;;;;25.90;12.70;;;;;;;16.95;67.36;99435.44;113017;1195;107540;-74
2021/09/26 17:31:15;;;;;;;44.50;30.60;;;;;;;16.88;67.56;99433.06;113111;1195;97633;-72
2021/09/26 17:33:44;;;;;;;40.50;23.40;;;;;;;16.83;67.64;99433.75;113111;1195;95077;-74
2021/09/26 17:36:14;;;;;;;33.40;19.50;;;;;;;16.75;67.60;99432.48;113046;1195;111127;-70
2021/09/26 17:38:44;;;;;;;29.70;17.90;;;;;;;16.71;67.85;99438.25;113117;1196;97713;-72
2021/09/26 17:41:12;;;;;;;29.80;15.60;;;;;;;16.66;67.80;99439.52;113083;1195;107511;-72
2021/09/26 17:43:41;;;;;;;32.30;18.20;;;;;;;16.61;67.92;99441.67;112964;1195;96287;-72
2021/09/26 17:46:13;;;;;;;31.20;17.50;;;;;;;16.56;67.86;99445.98;113133;1196;97660;-72
2021/09/26 17:48:42;;;;;;;31.80;16.00;;;;;;;16.53;67.96;99449.02;113089;1195;111164;-72
2021/09/26 17:51:14;;;;;;;28.60;16.80;;;;;;;16.49;67.89;99445.08;113038;1195;97577;-72
2021/09/26 17:53:44;;;;;;;31.40;16.00;;;;;;;16.45;68.00;99447.59;113015;1196;107518;-72
2021/09/26 17:56:12;;;;;;;28.70;15.90;;;;;;;16.42;68.02;99448.42;113024;1195;97754;-73
2021/09/26 17:58:40;;;;;;;25.90;14.50;;;;;;;16.38;67.96;99445.91;112832;1196;95093;-71
2021/09/26 18:01:10;;;;;;;27.40;14.40;;;;;;;16.34;67.97;99447.88;112924;1195;110344;-71
2021/09/26 18:03:40;;;;;;;27.90;16.90;;;;;;;16.30;67.99;99443.23;113131;1195;96160;-70
2021/09/26 18:06:09;;;;;;;27.20;15.90;;;;;;;16.26;68.14;99445.40;112988;1197;107537;-71
2021/09/26 18:08:38;;;;;;;29.00;17.70;;;;;;;16.21;68.16;99446.48;113111;1195;97691;-71
2021/09/26 18:11:06;;;;;;;29.50;18.00;;;;;;;16.17;68.19;99445.79;113042;1195;97612;-71
2021/09/26 18:13:34;;;;;;;27.40;17.50;;;;;;;16.14;68.20;99443.21;112999;1196;110167;-70
2021/09/26 18:16:03;;;;;;;30.50;19.20;;;;;;;16.12;68.44;99441.63;112989;1196;97631;-72
2021/09/26 18:18:31;;;;;;;34.50;19.60;;;;;;;16.10;68.42;99439.65;113055;1195;106811;-72
2021/09/26 18:21:01;;;;;;;32.60;19.60;;;;;;;16.09;68.39;99441.19;112684;1196;97766;-71
2021/09/26 18:23:33;;;;;;;31.90;20.70;;;;;;;16.08;68.32;99438.22;113036;1195;97590;-71
2021/09/26 18:26:05;;;;;;;30.90;19.20;;;;;;;16.07;68.47;99436.35;113121;1195;111336;-70
2021/09/26 18:28:34;;;;;;;31.40;20.00;;;;;;;16.06;68.53;99441.23;112978;1195;97789;-71
2021/09/26 18:31:04;;;;;;;31.10;19.80;;;;;;;16.05;68.69;99443.31;112618;1197;106396;-70
2021/09/26 18:33:36;;;;;;;30.70;20.30;;;;;;;16.03;68.63;99442.90;113068;1195;97622;-70
2021/09/26 18:36:11;;;;;;;34.00;21.60;;;;;;;16.02;68.60;99443.71;112795;1196;97610;-72
2021/09/26 18:38:41;;;;;;;30.20;19.90;;;;;;;16.01;68.80;99441.67;112830;1197;112670;-71
2021/09/26 18:41:16;;;;;;;31.40;20.90;;;;;;;16.01;68.75;99444.18;113121;1187;97598;-70
2021/09/26 18:43:44;;;;;;;32.60;21.60;;;;;;;15.99;68.75;99447.55;113032;1196;107498;-71
2021/09/26 18:46:17;;;;;;;33.20;22.00;;;;;;;15.97;68.83;99446.29;112910;1196;97653;-72
2021/09/26 18:48:46;;;;;;;37.30;23.60;;;;;;;15.96;68.76;99448.35;112857;1196;98603;-71
2021/09/26 18:51:17;;;;;;;34.60;23.80;;;;;;;15.95;68.87;99453.34;113035;1195;111293;-71
2021/09/26 18:53:46;;;;;;;34.90;24.90;;;;;;;15.93;68.96;99454.55;113059;1196;97647;-72
2021/09/26 18:56:18;;;;;;;35.10;24.10;;;;;;;15.92;68.99;99459.77;113036;1196;108228;-73
2021/09/26 18:58:48;;;;;;;33.70;23.60;;;;;;;15.93;69.13;99457.80;112741;1196;97595;-74
2021/09/26 19:01:18;;;;;;;37.60;23.90;;;;;;;15.93;69.28;99455.63;113107;1195;97588;-71
2021/09/26 19:03:46;;;;;;;33.70;24.10;;;;;;;15.94;69.37;99455.91;113008;1195;110354;-71
2021/09/26 19:06:14;;;;;;;35.80;24.40;;;;;;;15.94;69.32;99459.64;113111;1195;95787;-71
2021/09/26 19:08:42;;;;;;;36.60;25.00;;;;;;;15.93;69.44;99457.38;113098;1195;107614;-73
2021/09/26 19:11:15;;;;;;;35.10;24.90;;;;;;;15.91;69.49;99452.91;113026;1195;97610;-70
2021/09/26 19:13:44;;;;;;;34.70;24.70;;;;;;;15.91;69.51;99448.67;113109;1197;97604;-72
2021/09/26 19:16:14;;;;;;;33.60;23.80;;;;;;;15.89;69.58;99450.73;112984;1195;112759;-72
2021/09/26 19:18:42;;;;;;;35.50;24.60;;;;;;;15.87;69.54;99448.61;113007;1195;96202;-72
2021/09/26 19:21:12;;;;;;;36.40;24.70;;;;;;;15.86;69.60;99448.00;112793;1196;108191;-73
2021/09/26 19:23:41;;;;;;;37.30;27.30;;;;;;;15.85;69.75;99445.02;112790;1196;97547;-73
2021/09/26 19:26:11;;;;;;;36.60;25.20;;;;;;;15.84;69.75;99447.66;112942;1196;97572;-74
2021/09/26 19:28:42;;;;;;;34.20;24.30;;;;;;;15.77;69.55;99444.30;113078;1196;110862;-71
2021/09/26 19:31:20;;;;;;;34.30;23.40;;;;;;;15.70;69.64;99442.72;113171;1195;97653;-69
2021/09/26 19:33:48;;;;;;;35.30;24.60;;;;;;;15.67;69.82;99448.60;112917;1195;107456;-67
2021/09/26 19:36:16;;;;;;;34.30;22.50;;;;;;;15.62;69.80;99452.38;113099;1195;97722;-70
2021/09/26 19:38:45;;;;;;;37.60;24.80;;;;;;;15.59;69.76;99459.48;112789;1196;97759;-70
2021/09/26 19:41:14;;;;;;;33.00;23.60;;;;;;;15.55;69.81;99460.33;113073;1195;111226;-68
2021/09/26 19:43:45;;;;;;;37.80;23.90;;;;;;;15.51;69.89;99461.77;112890;1195;97678;-70
2021/09/26 19:46:14;;;;;;;34.40;24.20;;;;;;;15.48;70.06;99458.38;113046;1195;107750;-71
2021/09/26 19:48:44;;;;;;;35.60;24.40;;;;;;;15.45;70.02;99459.05;113137;1196;97633;-72
2021/09/26 19:51:12;;;;;;;36.00;24.70;;;;;;;15.43;70.16;99455.50;112957;1196;95113;-70
2021/09/26 19:53:41;;;;;;;33.80;22.90;;;;;;;15.39;70.08;99455.64;112825;1196;110945;-71
2021/09/26 19:56:10;;;;;;;35.00;22.80;;;;;;;15.36;70.07;99455.92;112810;1195;98089;-72
2021/09/26 19:58:42;;;;;;;35.00;23.10;;;;;;;15.32;70.14;99464.08;113031;1195;107505;-71
2021/09/26 20:01:14;;;;;;;34.50;22.40;;;;;;;15.26;70.12;99464.57;113103;1195;97666;-71
2021/09/26 20:03:44;;;;;;;34.40;22.70;;;;;;;15.21;70.02;99468.64;113174;1195;95064;-71
2021/09/26 20:06:13;;;;;;;34.90;24.10;;;;;;;15.15;70.13;99469.44;113132;1195;112997;-70
2021/09/26 20:08:41;;;;;;;33.20;22.50;;;;;;;15.09;70.21;99469.42;112761;1196;97529;-71
2021/09/26 20:11:11;;;;;;;36.00;24.30;;;;;;;15.05;70.18;99467.08;113120;1195;107591;-69
2021/09/26 20:13:39;;;;;;;34.20;22.60;;;;;;;15.01;70.36;99470.96;112650;1195;97595;-70
2021/09/26 20:16:07;;;;;;;35.10;23.60;;;;;;;14.97;70.26;99475.08;113180;1195;95033;-71
2021/09/26 20:18:35;;;;;;;36.30;23.90;;;;;;;14.92;70.36;99473.73;113052;1196;111239;-70
2021/09/26 20:21:06;;;;;;;38.10;25.60;;;;;;;14.88;70.35;99469.27;113046;1195;97666;-70
2021/09/26 20:23:34;;;;;;;40.70;26.10;;;;;;;14.84;70.44;99465.67;112992;1195;107661;-71
2021/09/26 20:26:04;;;;;;;39.70;26.40;;;;;;;14.80;70.43;99463.62;113098;1196;97663;-71
2021/09/26 20:28:32;;;;;;;39.50;27.70;;;;;;;14.76;70.55;99463.95;113030;1196;97676;-71
2021/09/26 20:31:02;;;;;;;43.10;27.40;;;;;;;14.74;70.61;99467.02;113028;1195;111210;-73
2021/09/26 20:33:30;;;;;;;37.40;24.60;;;;;;;14.70;70.56;99470.17;113048;1195;97668;-71
2021/09/26 20:35:58;;;;;;;37.10;25.20;;;;;;;14.68;70.68;99469.64;113007;1195;107464;-71
2021/09/26 20:38:26;;;;;;;37.70;26.40;;;;;;;14.65;70.70;99466.11;113032;1195;97622;-72
2021/09/26 20:40:54;;;;;;;42.00;26.10;;;;;;;14.62;70.65;99471.16;112762;1196;97625;-71
2021/09/26 20:43:22;;;;;;;37.50;25.10;;;;;;;14.59;70.68;99473.39;112983;1195;109753;-71
2021/09/26 20:45:52;;;;;;;42.60;28.10;;;;;;;14.56;70.80;99474.45;113053;1195;97553;-71
2021/09/26 20:48:23;;;;;;;41.00;27.30;;;;;;;14.56;70.79;99478.43;113124;1195;107530;-71
2021/09/26 20:50:54;;;;;;;38.10;26.00;;;;;;;14.56;70.90;99481.33;113270;1195;95722;-72
2021/09/26 20:53:24;;;;;;;37.80;25.50;;;;;;;14.55;70.91;99486.42;112902;1195;97620;-71
2021/09/26 20:55:53;;;;;;;36.50;24.70;;;;;;;14.51;70.84;99490.44;113051;1195;110796;-71
2021/09/26 20:58:21;;;;;;;40.10;25.80;;;;;;;14.48;70.92;99490.87;113135;1195;97632;-70
2021/09/26 21:00:50;;;;;;;41.30;26.60;;;;;;;14.47;71.03;99488.98;113094;1195;107515;-71
2021/09/26 21:03:18;;;;;;;40.30;25.40;;;;;;;14.48;71.08;99493.23;113089;1196;97666;-69
2021/09/26 21:05:47;;;;;;;36.60;25.00;;;;;;;14.48;71.14;99495.55;113180;1195;97562;-71
2021/09/26 21:08:16;;;;;;;39.40;26.80;;;;;;;14.48;71.22;99496.41;113182;1196;111290;-71
2021/09/26 21:10:45;;;;;;;37.10;25.10;;;;;;;14.47;71.16;99494.20;113176;1197;97775;-70
2021/09/26 21:13:13;;;;;;;37.40;24.60;;;;;;;14.47;71.22;99492.96;113157;1195;108420;-71
2021/09/26 21:15:43;;;;;;;40.30;25.10;;;;;;;14.47;71.25;99493.65;113163;1195;97563;-70
2021/09/26 21:18:12;;;;;;;32.40;23.20;;;;;;;14.47;71.32;99494.16;113088;1195;96194;-72
2021/09/26 21:20:53;;;;;;;39.30;26.00;;;;;;;14.48;71.33;99493.54;113833;1194;111148;-71
2021/09/26 21:23:23;;;;;;;40.00;27.00;;;;;;;14.50;71.34;99498.96;113096;1195;97633;-71
2021/09/26 21:25:52;;;;;;;37.30;26.50;;;;;;;14.52;71.41;99496.80;113121;1195;108581;-71
2021/09/26 21:28:20;;;;;;;40.10;27.40;;;;;;;14.54;71.47;99501.13;113114;1180;94959;-70
2021/09/26 21:30:49;;;;;;;42.00;27.50;;;;;;;14.56;71.48;99499.52;113013;1195;97550;-72
2021/09/26 21:33:17;;;;;;;39.30;28.00;;;;;;;14.57;71.59;99496.73;113138;1195;110962;-70
2021/09/26 21:35:47;;;;;;;40.10;27.80;;;;;;;14.59;71.59;99494.79;113117;1195;97806;-70
2021/09/26 21:38:19;;;;;;;41.50;28.20;;;;;;;14.61;71.72;99488.77;113141;1195;107385;-72
2021/09/26 21:40:53;;;;;;;41.90;26.40;;;;;;;14.63;71.74;99490.20;112821;1196;97582;-72
2021/09/26 21:43:23;;;;;;;38.80;27.90;;;;;;;14.66;71.70;99485.68;113171;1195;97656;-72
2021/09/26 21:45:51;;;;;;;39.20;27.90;;;;;;;14.68;71.79;99478.69;113014;1196;111311;-73
2021/09/26 21:48:20;;;;;;;39.80;27.40;;;;;;;14.71;71.88;99479.56;113189;1195;97524;-72
2021/09/26 21:50:51;;;;;;;39.60;26.80;;;;;;;14.73;71.85;99481.92;113103;1195;107559;-71
2021/09/26 21:53:21;;;;;;;38.30;26.50;;;;;;;14.74;71.96;99486.42;112894;1195;95850;-73
2021/09/26 21:55:49;;;;;;;39.00;27.20;;;;;;;14.76;72.00;99485.77;113142;1195;97569;-72
2021/09/26 21:58:18;;;;;;;39.50;28.10;;;;;;;14.77;72.03;99485.13;113138;1195;111702;-71
2021/09/26 22:01:08;;;;;;;37.70;26.40;;;;;;;14.78;72.14;99484.39;113199;1195;97543;-72
2021/09/26 22:03:44;;;;;;;35.90;25.90;;;;;;;14.78;72.11;99482.39;113167;1195;107514;-71
2021/09/26 22:06:13;;;;;;;35.70;25.30;;;;;;;14.78;72.19;99485.05;113033;1195;97601;-71
2021/09/26 22:08:41;;;;;;;39.20;26.70;;;;;;;14.78;72.18;99488.80;112957;1196;97585;-72
2021/09/26 22:11:13;;;;;;;39.50;27.10;;;;;;;14.79;72.13;99487.11;112971;1195;110673;-71
2021/09/26 22:13:47;;;;;;;38.50;26.80;;;;;;;14.80;72.23;99491.34;112961;1195;97702;-71
2021/09/26 22:16:18;;;;;;;40.50;26.70;;;;;;;14.81;72.33;99488.36;113093;1195;107563;-70
2021/09/26 22:18:46;;;;;;;38.80;26.00;;;;;;;14.82;72.34;99491.48;112929;1195;97632;-71
2021/09/26 22:21:24;;;;;;;41.10;27.00;;;;;;;14.83;72.26;99484.47;113131;1195;97668;-71
2021/09/26 22:24:01;;;;;;;40.10;27.10;;;;;;;14.84;72.42;99484.03;113019;1195;111290;-71
2021/09/26 22:26:47;;;;;;;41.50;26.80;;;;;;;14.85;72.50;99484.68;112672;1197;97651;-71
2021/09/26 22:29:17;;;;;;;39.90;27.30;;;;;;;14.86;72.47;99487.77;112844;1196;107583;-72
2021/09/26 22:31:46;;;;;;;38.20;26.90;;;;;;;14.86;72.48;99478.99;112930;1196;97753;-71
2021/09/26 22:34:15;;;;;;;38.50;27.40;;;;;;;14.87;72.59;99472.52;113176;1195;97681;-71
2021/09/26 22:36:43;;;;;;;36.50;25.70;;;;;;;14.88;72.54;99474.55;113137;1195;111301;-71
2021/09/26 22:39:11;;;;;;;36.50;27.20;;;;;;;14.90;72.68;99475.88;113096;1195;97634;-72
2021/09/26 22:41:41;;;;;;;37.80;26.80;;;;;;;14.90;72.65;99473.71;113037;1195;107633;-70
2021/09/26 22:44:09;;;;;;;40.40;28.00;;;;;;;14.89;72.69;99468.58;113146;1195;97671;-68
2021/09/26 22:46:37;;;;;;;37.70;25.80;;;;;;;14.91;72.80;99465.63;113196;1195;97561;-72
2021/09/26 22:49:07;;;;;;;38.20;26.00;;;;;;;14.91;72.68;99467.21;112984;1196;111324;-72
2021/09/26 22:51:35;;;;;;;36.50;26.00;;;;;;;14.90;72.75;99469.74;113005;1195;97588;-70
2021/09/26 22:54:03;;;;;;;37.60;27.80;;;;;;;14.91;72.87;99466.67;113069;1195;106175;-70
2021/09/26 22:56:31;;;;;;;34.90;25.80;;;;;;;14.91;72.84;99464.52;113191;1195;97533;-72
2021/09/26 22:58:59;;;;;;;35.90;25.20;;;;;;;14.92;72.87;99462.31;112833;1196;97518;-72
2021/09/26 23:01:42;;;;;;;38.20;26.00;;;;;;;14.92;72.91;99454.24;113188;1195;112042;-72
2021/09/26 23:04:12;;;;;;;35.20;24.40;;;;;;;14.93;72.96;99452.20;112792;1196;98397;-73
2021/09/26 23:06:41;;;;;;;36.90;24.40;;;;;;;14.93;73.05;99453.79;113135;1195;107561;-72
2021/09/26 23:09:11;;;;;;;36.80;25.00;;;;;;;14.95;72.99;99454.75;113409;1199;97679;-70
2021/09/26 23:11:41;;;;;;;34.80;24.80;;;;;;;14.96;73.01;99456.48;113126;1195;98300;-73
2021/09/26 23:14:09;;;;;;;34.10;24.70;;;;;;;14.96;73.10;99449.84;113105;1195;111279;-72
2021/09/26 23:16:37;;;;;;;35.60;24.90;;;;;;;14.96;73.05;99452.70;113113;1195;97564;-72
2021/09/26 23:19:05;;;;;;;34.50;23.40;;;;;;;14.96;73.12;99454.25;112965;1195;107616;-70
2021/09/26 23:21:33;;;;;;;34.80;23.60;;;;;;;14.97;73.13;99456.52;113041;1195;95055;-72
2021/09/26 23:24:01;;;;;;;35.40;23.70;;;;;;;14.98;73.27;99456.27;113031;1196;97604;-70
2021/09/26 23:26:29;;;;;;;32.70;22.60;;;;;;;14.99;73.25;99456.54;112933;1195;111199;-70
2021/09/26 23:28:57;;;;;;;35.10;23.70;;;;;;;15.00;73.32;99451.08;113107;1195;95792;-72
2021/09/26 23:31:27;;;;;;;32.40;22.90;;;;;;;14.99;73.17;99443.52;113127;1195;108104;-71
2021/09/26 23:33:56;;;;;;;31.60;21.00;;;;;;;14.98;73.23;99440.70;113095;1195;97572;-71
2021/09/26 23:36:24;;;;;;;34.50;22.20;;;;;;;14.98;73.31;99437.00;113929;1180;96041;-70
2021/09/26 23:38:52;;;;;;;33.40;21.20;;;;;;;14.97;73.31;99438.45;113179;1195;111155;-70
2021/09/26 23:41:23;;;;;;;34.60;22.20;;;;;;;14.97;73.25;99439.73;113241;1195;95100;-69
2021/09/26 23:43:55;;;;;;;32.10;21.90;;;;;;;14.96;73.39;99430.53;113099;1195;107491;-69
2021/09/26 23:46:30;;;;;;;31.60;21.60;;;;;;;14.96;73.39;99430.90;113144;1195;95032;-70
2021/09/26 23:49:02;;;;;;;32.90;21.30;;;;;;;14.95;73.47;99428.34;113033;1197;97626;-71
2021/09/26 23:51:34;;;;;;;32.10;22.00;;;;;;;14.92;73.44;99424.79;112849;1195;111195;-72
2021/09/26 23:54:04;;;;;;;31.60;21.60;;;;;;;14.91;73.47;99423.27;113120;1195;97817;-72
2021/09/26 23:56:32;;;;;;;31.00;20.70;;;;;;;14.88;73.49;99425.10;113131;1195;107956;-69
2021/09/26 23:59:00;;;;;;;32.50;21.40;;;;;;;14.87;73.48;99428.12;113075;1195;97709;-68
